View Race ResultsHenderson Trail Classic — September 7, 2013

Race Results2013 Henderson Trail Classic

The first competitive event ever held on the wildly popular McCullough Hills Trail and our first time offering a cash prize, the Henderson Trail Classic on September 7, 2014 was a great race for all involved!

Participants in the Inaugural Henderson Trail Classic were spoiled with overcast skies and much-cooler-than-expected weather, although slightly more humid than usual. After hearing pre-race speeches by the Outside Las Vegas Foundation who was instrumental in getting the trail built, and Mayor Andy Hafen from the City of Henderson, runners took off for an out-and-back along McCullough Hills Trail from a 5K to a 25K running the full distance of the trail.

With $1,000 in total cash prizes on the line, husband and wife Josh and Hillary Brimhall swept the 25K and took home the full purse. Josh was lightning fast with a 1:47:15 on his 25K, with Alain Charlebois (Overall 5K winner) the only runner with a faster average mile/minute pace in his own very impressive finish of 21:15 in the 5K. Alan Carreno and Christopher Falkner won their 10K and Half Marathon races respectively by nearly 3 minutes each.

Henderson Trail Classic

25K Results

  Name Bib # Hometown Gender Age Age Group Time Time Back
1 Joshua Brimhall 705 Henderson, NV Male 37 M 30–39 [1] 1:47:15
2 Graeme Stewart 739 Dundee, GB Male 35 M 30–39 [2] 1:52:44 + 5:29
3 Eric Swenson 741 Las Vegas, NV Male 33 M 30–39 [3] 1:58:39 + 11:24
4 James Harrington 721 Las Vegas, NV Male 37 M 30–39 [4] 2:01:00 + 13:45
5 Guy Wadas 746 Henderson, NV Male 40 M 40–49 [1] 2:04:33 + 17:18
6 Rich Frank 717 Las Vegas, NV Male 23 M 20–29 [1] 2:06:23 + 19:08
7 Jona Jeremy Harold 720 Tonalea, AZ Male 33 M 30–39 [5] 2:13:49 + 26:34
8 William Swope 752 Las Vegas, NV Male 25 M 20–29 [2] 2:15:40 + 28:25
9 Christopher Desierto 751 Las Vegas, NV Male 33 M 30–39 [6] 2:20:44 + 33:29
10 Brent Bowers 703 Henderson, NV Male 52 M 50–59 [1] 2:21:09 + 33:54
11 Paul Franke 718 Las Vegas, NV Male 51 M 50–59 [2] 2:28:39 + 41:24
12 Hillary Brimhall 706 Henderson, NV Female 31 F 30–39 [1] 2:29:58 + 42:43
13 Joe Degoosh 708 Las Vegas, NV Male 48 M 40–49 [2] 2:33:16 + 46:01
14 Scott Leland 725 Goodyear, AZ Male 45 M 40–49 [3] 2:38:21 + 51:06
15 Sina Foley 716 Las Vegas, NV Female 38 F 30–39 [2] 2:42:35 + 55:20
16 Tom Salazar 737 Las Vegas, NV Male 59 M 50–59 [3] 2:43:14 + 55:59
17 Lisanne Naeth 732 Victoria, BC Female 27 F 20–29 [1] 2:45:31 + 58:16
18 Greg Schulman 738 Las Vegas, NV Male 44 M 40–49 [4] 2:46:38 + 59:23
19 Geoff Bickel 702 Henderson, NV Male 45 M 40–49 [5] 2:51:47 + 1:04:32
20 Marni Mcdowell 730 Boise, ID Female 39 F 30–39 [3] 2:53:11 + 1:05:56
21 Helena Detmer 710 Las Vegas, NV Female 31 F 30–39 [4] 2:56:18 + 1:09:03
22 Sandy Gosnell 719 Las Vegas, NV Female 54 F 50 – 59 [1] 2:58:55 + 1:11:40
23 Daniel Roed 735 Concord, CA Male 45 M 40–49 [6] 3:06:18 + 1:19:03
24 Kimberly Kanitz 723 Henderson, NV Female 46 F 40–49 [1] 3:06:26 + 1:19:11
25 Heidi Dove 713 Henderson, NV Female 39 F 30–39 [5] 3:06:28 + 1:19:13
26 Nicole Walter 747 Sunriver, OR Female 45 F 40–49 [2] 3:12:04 + 1:24:49
27 Michael Wall 749 Grand Prairie, TX Male 59 M 50–59 [4] 3:16:18 + 1:29:03
28 Angela Dimaya 711 Las Vegas, NV Female 37 F 30–39 [6] 3:21:31 + 1:34:16
29 Marie Bickel 701 Henderson, NV Female 45 F 40–49 [3] 3:21:34 + 1:34:19
30 Brian Mirasol 731 North Las Vegas, NV Male 38 M 30–39 [7] 3:21:37 + 1:34:22
31 Nancy Vargas 744 Las Vegas, NV Female 36 F 30–39 [7] 3:27:25 + 1:40:10
32 Meri Bowers 704 Henderson, NV Female 50 F 50 – 59 [2] 3:30:38 + 1:43:23
33 Francie Stocking 740 Las Vegas, NV Female 41 F 40–49 [4] 3:32:55 + 1:45:40
34 Christine Uptain 743 Henderson, NV Female 28 F 20–29 [2] 3:36:52 + 1:49:37
35 Josh Villaflor 745 North Las Vegas, NV Male 32 M 30–39 [8] 3:37:15 + 1:50:00
36 Naomi Fair 715 Signal Hill, CA Female 33 F 30–39 [8] 3:38:32 + 1:51:17
37 Steve Hernandez 722 Temple City, CA Male 46 M 40–49 [7] 3:38:33 + 1:51:18
38 MC Moss 750 Henderson, NV Female 54 F 50 – 59 [3] 3:54:20 + 2:07:05
39 Rainier Ricafort 734 Las Vegas, NV Male 30 M 30–39 [9] 3:55:13 + 2:07:58
40 Pamela Salazar 736 Las Vegas, NV Female 62 F 50 – 59 [4] 4:01:12 + 2:13:57
41 Craig Mathew 728 Henderson, NV Male 23 M 20–29 [3] 4:19:12 + 2:31:57
42 Kathy Williams 748 Las Vegas, NV Female 42 F 40–49 [5] 4:25:55 + 2:38:40
43 Anni Larkins 724 Mannford, OK Female 43 F 40–49 [6] 4:32:56 + 2:45:41
Marie Donovan 712 Henderson, NV Female 35 F 30–39 DNF

Half Marathon Results

  Name Bib # Hometown Gender Age Age Group Time Time Back
1 Christopher Falkner 516 Las Vegas, NV Male 27 M 20–29 [1] 1:37:55
2 Maik Lohse 524 Bornheim-Sechtem, DE Male 31 M 30–39 [1] 1:40:57 + 3:02
3 Jorg Hammer 520 Luzern, Male 31 M 30–39 [2] 1:44:21 + 6:26
4 Brad Stewart 540 Las Vegas, NV Male 60 M 50–59 [1] 1:53:15 + 15:20
5 Stefan Duke 515 Las Vegas, NV Male 41 M 40–49 [1] 1:56:58 + 19:03
6 Neil Bradshaw 505 London, UK Male 53 M 50–59 [2] 1:58:19 + 20:24
7 Wayne King 523 Henderson, NV Male 49 M 40–49 [2] 1:59:53 + 21:58
8 Scott Bartlett 503 Kingman, AZ Male 32 M 30–39 [3] 2:03:25 + 25:30
9 Jack Burden 508 Las Vegas, NV Male 42 M 40–49 [3] 2:03:30 + 25:35
10 Melissa Arcella 501 Henderson, NV Female 36 F 30–39 [1] 2:04:13 + 26:18
11 Alexander Ramos 537 Las Vegas, NV Male 37 M 30–39 [4] 2:09:13 + 31:18
12 Justin Medige 527 North Las Vegas, NV Male 29 M 20–29 [2] 2:09:58 + 32:03
13 Richard Gosnell 519 Las Vegas, NV Male 55 M 50–59 [3] 2:10:59 + 33:04
14 Amelia Redekop 538 Henderson, NV Female 23 F 20–29 [1] 2:16:33 + 38:38
15 Matthew Ryan 539 Las Vegas, NV Male 39 M 30–39 [5] 2:19:27 + 41:32
16 Mauna Davin 512 Las Vegas, NV Female 33 F 30–39 [2] 2:24:21 + 46:26
17 Cindy Mcintosh 526 Las Vegas, NV Female 42 F 40–49 [1] 2:26:34 + 48:39
18 Scott Pinkerton 535 Henderson, NV Male 31 M 30–39 [6] 2:26:37 + 48:42
19 Luke Yardley 546 Las Vegas, NV Male 35 M 30–39 [7] 2:27:00 + 49:05
20 Rigoberto Tellez-Garcia 541 Las Vegas, NV Male 24 M 20–29 [3] 2:29:42 + 51:47
21 Arthur Mirasol 547 Henderson, NV Male 40 M 40–49 [4] 2:30:45 + 52:50
22 Robin Bigda 504 Henderson, NV Female 27 F 20–29 [2] 2:34:05 + 56:10
23 Lisa Diamond 514 Henderson, NV Female 33 F 30–39 [3] 2:34:19 + 56:24
24 Nickolas Uptain 544 Henderson, NV Male 29 M 20–29 [4] 2:41:26 + 1:03:31
25 Kirk Buckley 507 Las Vegas, NV Male 45 M 40–49 [5] 2:41:37 + 1:03:42
26 Charlene Ragsdale 536 Las Vegas, NV Female 51 F 50 – 59 [1] 2:41:38 + 1:03:43
27 Corey Miller 528 Henderson, NV Female 38 F 30–39 [4] 2:43:13 + 1:05:18
28 Bridget Buck 506 Henderson, NV Female 27 F 20–29 [3] 2:43:15 + 1:05:20
29 John Marquez 525 Las Vegas, NV Male 19 M 10–19 [1] 2:45:56 + 1:08:01
30 John Ball 502 Las Vegas, NV Male 44 M 40–49 [6] 2:47:07 + 1:09:12
31 Lyle Gillogly 518 Las Vegas, NV Male 48 M 40–49 [7] 2:52:52 + 1:14:57
32 Laura Helland 522 Henderson, NV Female 52 F 50 – 59 [2] 2:53:25 + 1:15:30
33 Leigh Morehouse 531 Las Vegas, NV Female 39 F 30–39 [5] 3:02:57 + 1:25:02
34 Mark Mosinski 532 Las Vegas, NV Male 29 M 20–29 [5] 3:08:55 + 1:31:00
35 Angela Wozniak 545 Las Vegas, NV Female 39 F 30–39 [6] 3:13:16 + 1:35:21
36 Marissa De Luna 513 Santee, CA Female 51 F 50 – 59 [3] 3:14:18 + 1:36:23
37 Luis Norris 534 Boulder City, NV Male 42 M 40–49 [8] 3:23:41 + 1:45:46
38 Cora-Lee Miller 530 Boulder City, NV Female 49 F 40–49 [2] 3:27:34 + 1:49:39
39 Yoka Christopher 510 Las Vegas, NV Female 42 F 40–49 [3] 3:30:40 + 1:52:45
40 Victor Miller 529 Boulder City, NV Male 60 M 50–59 [4] 3:39:22 + 2:01:27
41 Daniel Thompson 543 Las Vegas, NV Male 26 M 20–29 [6] 3:45:36 + 2:07:41

10K Results

  Name Bib # Hometown Gender Age Age Group Time Time Back
1 Alan Carreno 315 Las Vegas, NV Male 23 M 20–29 [1] 41:18
2 Brian Coyne 318 Henderson, NV Male 29 M 20–29 [2] 44:17 + 2:59
3 Hans Luther 341 Henderson, NV Male 37 M 30–39 [1] 44:51 + 3:33
4 Steven Dean 319 Las Vegas, NV Male 63 M 50–59 [1] 45:18 + 4:00
5 David Cooper 375 Las Vegas, NV Male 31 M 30–39 [2] 47:58 + 6:40
6 Joshua Eddy 370 Las Vegas, NV Male 32 M 30–39 [3] 49:36 + 8:18
7 Patrick Higgins 330 Henderson, NV Male 30 M 30–39 [4] 50:08 + 8:50
8 Shane Portfolio 350 Livermore, CA Male 38 M 30–39 [5] 51:39 + 10:21
9 Marc Bai 306 Las Vegas, NV Male 31 M 30–39 [6] 52:31 + 11:13
10 Lonan Pies 348 Henderson, NV Male 30 M 30–39 [7] 52:39 + 11:21
11 Lisa Colety 317 Henderson, NV Female 41 F 40–49 [1] 52:57 + 11:39
12 Brian Williams 366 Henderson, NV Male 44 M 40–49 [1] 53:59 + 12:41
13 Aaron Unger 363 Las Vegas, NV Male 32 M 30–39 [8] 54:05 + 12:47
14 Katherine Timoshuk 361 Henderson, NV Female 33 F 30–39 [1] 54:21 + 13:03
15 Alfonso Velasco 364 Metepec, MX Male 48 M 40–49 [2] 55:08 + 13:50
16 Adam Hatch 328 Las Vegas, NV Male 29 M 20–29 [3] 55:13 + 13:55
17 Stephen Naeth 344 Victoria, BC Male 29 M 20–29 [4] 55:52 + 14:34
18 Daniel Dirksen 321 Las Vegas, NV Male 32 M 30–39 [9] 57:13 + 15:55
19 Phil Bauer 309 Henderson, NV Male 47 M 40–49 [3] 57:48 + 16:30
20 Robert Rochell 378 Atlanta, GA Male 33 M 30–39 [10] 58:05 + 16:47
21 Dawn Nielsen 345 Henderson, NV Female 48 F 40–49 [2] 58:25 + 17:07
22 Gary Lyon 342 Henderson, NV Male 25 M 20–29 [5] 59:11 + 17:53
23 Tom Melear 368 Henderson, NV Male 57 M 50–59 [2] 1:00:13 + 18:55
24 Casey Chernesky 316 Henderson, NV Female 36 F 30–39 [2] 1:00:31 + 19:13
25 Stephanie Anwar 302 Henderson, NV Female 37 F 30–39 [3] 1:01:24 + 20:06
26 Ben Sillitoe 372 Henderson, NV Male 36 M 30–39 [11] 1:01:33 + 20:15
27 Marisa Keliikipi 334 Las Vegas, NV Female 29 F 20–29 [1] 1:02:16 + 20:58
28 Aixa Duffy 323 Las Vegas, NV Female 48 F 40–49 [3] 1:02:30 + 21:12
29 Jason Socia 356 Las Vegas, NV Male 38 M 30–39 [12] 1:03:25 + 22:07
30 Aaron Hastings 327 Henderson, NV Male 44 M 40–49 [4] 1:03:28 + 22:10
31 Michael Hayes 374 North Las Vegas, NV Male 31 M 30–39 [13] 1:03:31 + 22:13
32 Gabriel Repucci 376 Las Vegas, NV Male 35 M 30–39 [14] 1:04:13 + 22:55
33 Jeff Hoose 332 Las Vegas, NV Male 34 M 30–39 [15] 1:04:33 + 23:15
34 Donnie Starling 357 North Las Vegas, NV Male 38 M 30–39 [16] 1:05:40 + 24:22
35 Tina Johnson 377 Henderson, NV Female 38 F 30–39 [4] 1:05:40 + 24:22
36 Claus Gohring 325 Henderson, NV Male 43 M 40–49 [5] 1:07:18 + 26:00
37 Kristal Romans 352 Pahrump, NV Female 39 F 30–39 [5] 1:07:22 + 26:04
38 Carlos Lee 340 Las Vegas, NV Male 47 M 40–49 [6] 1:07:51 + 26:33
39 Ryan Young 367 Henderson, NV Male 45 M 40–49 [7] 1:07:57 + 26:39
40 Corrina Brodersen 313 Henderson, NV Female 30 F 30–39 [6] 1:08:05 + 26:47
41 Jonathan Tull 362 Henderson, NV Male 41 M 40–49 [8] 1:08:52 + 27:34
42 Jos Prud'homme 351 Gatineau, QC Female 36 F 30–39 [7] 1:09:11 + 27:53
43 Chantal Henri 329 Gatineau, QC Female 43 F 40–49 [4] 1:09:14 + 27:56
44 Glenda Rose Dolatre 322 Las Vegas, NV Female 30 F 30–39 [8] 1:09:21 + 28:03
45 Jim Beckman 311 Henderson, NV Male 48 M 40–49 [9] 1:10:10 + 28:52
46 Lina Ryan 354 Las Vegas, NV Female 29 F 20–29 [2] 1:10:22 + 29:04
47 James Betz 312 Las Vegas, NV Male 34 M 30–39 [17] 1:10:31 + 29:13
48 George Okinaka 346 Henderson, NV Male 41 M 40–49 [10] 1:10:35 + 29:17
49 April Stevens 358 Henderson, NV Female 37 F 30–39 [9] 1:11:02 + 29:44
50 Amanda Geray 324 Las Vegas, NV Female 29 F 20–29 [3] 1:12:24 + 31:06
51 Jennifer Bartlett 308 Kingman, AZ Female 29 F 20–29 [4] 1:12:53 + 31:35
52 Michael Sullivan 359 Henderson, NV Male 59 M 50–59 [3] 1:14:03 + 32:45
53 Allison Archer 303 Henderson, NV Female 40 F 40–49 [5] 1:14:17 + 32:59
54 Erin Ackerman 301 Henderson, NV Female 37 F 30–39 [10] 1:14:18 + 33:00
55 Justin Deleon 320 Las Vegas, NV Male 29 M 20–29 [6] 1:14:57 + 33:39
56 David Ryan 353 Las Vegas, NV Male 30 M 30–39 [18] 1:15:55 + 34:37
57 Rebekah Martin 371 Henderson, NV Female 34 F 30–39 [11] 1:16:50 + 35:32
58 Jared Beck 310 Henderson, NV Male 33 M 30–39 [19] 1:17:34 + 36:16
59 Hunlan Trinh 369 Las Vegas, NV Female 35 F 30–39 [12] 1:18:43 + 37:25
60 Holly Gordon 326 Las Vegas, NV Female 61 F 50 – 59 [1] 1:19:24 + 38:06
61 Eric Holbert 331 Las Vegas, NV Male 48 M 40–49 [11] 1:20:36 + 39:18
62 Kelly Cage 314 Henderson, NV Female 40 F 40–49 [6] 1:21:06 + 39:48
63 Wes Thurman 360 Henderson, NV Male 33 M 30–39 [20] 1:24:00 + 42:42
64 Ashlie Watters 365 Henderson, NV Female 29 F 20–29 [5] 1:24:35 + 43:17
65 Denise Schnitzer 355 Henderson, NV Female 58 F 50 – 59 [2] 1:25:59 + 44:41
66 Aimee Kobashigawa 336 Henderson, NV Female 29 F 20–29 [6] 1:26:02 + 44:44
67 Atsushi Kumagai 339 Honolulu, HI Male 52 M 50–59 [4] 1:39:20 + 58:02
68 Kelly Baetz 305 Henderson, NV Male 51 M 50–59 [5] 1:46:48 + 1:05:30
69 Lisa Kocourek 337 Henderson, NV Female 27 F 20–29 [7] 1:47:27 + 1:06:09
70 Tina Baetz 304 Henderson, NV Female 43 F 40–49 [7] 1:47:28 + 1:06:10

5K Results

  Name Bib # Hometown Gender Age Age Group Time Time Back
1 Alain Charlebois 105 Gatineau, QC Male 40 M 40–49 [1] 21:15
2 Ben Robertson 139 Las Vegas, NV Male 35 M 30–39 [1] 25:38 + 4:23
3 Travis Griffin 118 Henderson, NV Male 27 M 20–29 [1] 26:22 + 5:07
4 Russ Lapat 128 Las Vegas, NV Male 30 M 30–39 [2] 27:54 + 6:39
5 Reahana Senk 141 Henderson, NV Female 24 F 20–29 [1] 28:11 + 6:56
6 Kyle Kelly 124 Las Vegas, NV Male 29 M 20–29 [2] 29:30 + 8:15
7 Kar Tse 147 Las Vegas, NV Male 23 M 20–29 [3] 30:49 + 9:34
8 Kaylee Griffin 119 Henderson, NV Female 24 F 20–29 [2] 31:04 + 9:49
9 Allen Foust 116 Las Vegas, NV Male 31 M 30–39 [3] 31:08 + 9:53
10 Billy Steffens 143 Las Vegas, NV Male 30 M 30–39 [4] 31:34 + 10:19
11 Jennifer Rarden 134 Las Vegas, NV Female 42 F 40–49 [1] 32:37 + 11:22
12 Matthew Szczepanski 144 Henderson, NV Male 41 M 40–49 [2] 33:12 + 11:57
13 Jessica Pinjuv 138 Henderson, NV Female 45 F 40–49 [2] 33:39 + 12:24
14 Ericka Lu 129 Henderson, NV Female 40 F 40–49 [3] 34:48 + 13:33
15 Christian Delgado 110 Henderson, NV Male 16 M 10–19 [1] 34:49 + 13:34
16 Dena Berezin 103 Henderson, NV Female 37 F 30–39 [1] 35:06 + 13:51
17 Donald Mitchell 131 Las Vegas, NV Male 43 M 40–49 [3] 35:07 + 13:52
18 Lisa Smith 142 North Las Vegas, NV Female 43 F 40–49 [4] 35:13 + 13:58
19 Angela Pestana 137 Boulder City, NV Female 48 F 40–49 [5] 35:22 + 14:07
20 Vicki Ellis 112 Henderson, NV Female 44 F 40–49 [6] 37:20 + 16:05
21 Frank Carino 104 Cutler Bay, FL Male 49 M 40–49 [4] 37:48 + 16:33
22 Alberto Hernandez 120 Cutler Bay, FL Male 36 M 30–39 [5] 37:48 + 16:33
23 Marie Katigbak 123 Las Vegas, NV Female 42 F 40–49 [7] 37:56 + 16:41
24 Robert Opacki 135 Las Vegas, NV Male 30 M 30–39 [6] 38:16 + 17:01
25 Maria Fahy 113 Upminster, UK Female 48 F 40–49 [8] 38:33 + 17:18
26 Jenny Edwards 111 Highgate, UK Female 51 F 50 – 59 [1] 38:36 + 17:21
27 Catherine Lyons 130 Southend On Sea, UK Female 47 F 40–49 [9] 38:37 + 17:22
28 Carrie Defever 109 Las Vegas, NV Female 32 F 30–39 [2] 39:22 + 18:07
29 Brookie Thoen 146 Las Vegas, NV Female 12 F 10–19 [1] 41:08 + 19:53
30 Phillip Cockrum 108 Las Vegas, NV Male 34 M 30–39 [7] 41:18 + 20:03
31 Kaysey Thompson 542 Las Vegas, NV Female 25 F 20–29 [3] 41:43 + 20:28
32 Alison Cockrum 107 Las Vegas, NV Female 31 F 30–39 [3] 42:25 + 21:10
33 Kristin Yardley 151 Las Vegas, NV Female 26 F 20–29 [4] 43:04 + 21:49
34 Anthony Perrucci 136 Henderson, NV Male 28 M 20–29 [4] 43:10 + 21:55
35 Jordan Kyle 127 Henderson, NV Female 19 F 10–19 [2] 43:19 + 22:04
36 Julie Sabin 140 Henderson, NV Female 34 F 30–39 [4] 43:42 + 22:27
37 Kathy Arianoff 152 Henderson, NV Female 59 F 50 – 59 [2] 43:59 + 22:44
38 Matt Nighswonger 133 Las Vegas, NV Male 35 M 30–39 [8] 44:38 + 23:23
39 Jessica Van Beek 148 Las Vegas, NV Female 31 F 30–39 [5] 44:41 + 23:26
40 Barry Van Beek 149 Las Vegas, NV Male 42 M 40–49 [5] 44:41 + 23:26
41 Tiffany Kolbe 125 Boulder City, NV Female 41 F 40–49 [10] 44:57 + 23:42
42 Joshua Kolbe 126 Boulder City, NV Male 37 M 30–39 [9] 44:58 + 23:43
43 Patricia Winlow 150 Henderson, NV Female 35 F 30–39 [6] 45:35 + 24:20
44 Fernando Chavez Jr. 106 Henderson, NV Male 26 M 20–29 [5] 47:30 + 26:15
45 Robert Greeley 117 Las Vegas, NV Male 23 M 20–29 [6] 47:35 + 26:20
46 Clifford Moss 132 Henderson, NV Male 51 M 50–59 [1] 47:49 + 26:34
47 Richard Beecher 101 Spring, TX Male 52 M 50–59 [2] 47:57 + 26:42
48 Katherine Beecher 102 Spring, TX Female 49 F 40–49 [11] 47:57 + 26:42